Time;durP1;ratioP1;P1;durP2;ratioP2;P2;SDS_P1;SDS_P2;PMS_P1;PMS_P2;Temp;Humidity;BMP_temperature;BMP_pressure;BME280_temperature;BME280_humidity;BME280_pressure;Samples;Min_cycle;Max_cycle;Signal;HPM_P1;HPM_P2
2023/03/12 00:01:26;;;;;;;5.30;1.88;;;;;;;;;;5008807;28;20945;-79
2023/03/12 00:03:52;;;;;;;4.53;2.00;;;;;;;;;;5017293;28;20414;-81
2023/03/12 00:06:20;;;;;;;5.55;1.92;;;;;;;;;;5022363;28;20842;-79
2023/03/12 00:08:46;;;;;;;5.68;1.52;;;;;;;;;;5021463;28;20426;-81
2023/03/12 00:11:13;;;;;;;4.13;1.48;;;;;;;;;;5020173;28;20444;-82
2023/03/12 00:13:39;;;;;;;9.63;2.40;;;;;;;;;;5024303;28;20475;-83
2023/03/12 00:16:13;;;;;;;5.68;1.92;;;;;;;;;;5024970;28;20418;-80
2023/03/12 00:18:40;;;;;;;4.75;2.00;;;-1.20;99.90;;;;;;5019952;28;20419;-81
2023/03/12 00:21:06;;;;;;;5.07;1.50;;;;;;;;;;5025173;28;20470;-81
2023/03/12 00:23:32;;;;;;;7.90;1.70;;;;;;;;;;5016997;28;20447;-82
2023/03/12 00:26:00;;;;;;;5.70;2.07;;;;;;;;;;5025407;28;20857;-82
2023/03/12 00:28:26;;;;;;;3.50;1.88;;;;;;;;;;5015836;28;20432;-79
2023/03/12 00:30:52;;;;;;;5.00;1.42;;;;;;;;;;5026240;28;20939;-82
2023/03/12 00:33:18;;;;;;;4.70;1.67;;;;;;;;;;5020869;28;20464;-82
2023/03/12 00:35:45;;;;;;;3.53;1.90;;;;;;;;;;5024763;28;20435;-81
2023/03/12 00:38:11;;;;;;;2.55;1.45;;;;;;;;;;5023110;28;20426;-78
2023/03/12 00:40:38;;;;;;;5.13;1.63;;;;;;;;;;5020165;28;20414;-82
2023/03/12 00:43:04;;;;;;;6.88;1.92;;;;;;;;;;5023701;28;20465;-79
2023/03/12 00:45:30;;;;;;;3.53;1.70;;;;;;;;;;5020534;28;20403;-79
2023/03/12 00:47:56;;;;;;;3.38;1.50;;;;;;;;;;5025633;28;21036;-83
2023/03/12 00:50:22;;;;;;;2.22;1.35;;;;;;;;;;5015073;28;20493;-81
2023/03/12 00:52:48;;;;;;;3.88;1.83;;;;;;;;;;5019598;28;20415;-82
2023/03/12 00:55:14;;;;;;;4.53;1.75;;;;;;;;;;5024892;28;20530;-77
2023/03/12 00:57:40;;;;;;;2.75;1.17;;;;;;;;;;5023303;28;20412;-80
2023/03/12 01:00:09;;;;;;;2.83;1.60;;;;;;;;;;5015700;28;20772;-80
2023/03/12 01:02:39;;;;;;;5.53;2.30;;;-2.10;99.90;;;;;;5017619;28;20597;-83
2023/03/12 01:05:06;;;;;;;4.97;1.92;;;;;;;;;;5017729;28;20436;-82
2023/03/12 01:07:32;;;;;;;8.63;1.65;;;;;;;;;;5023815;28;20951;-82
2023/03/12 01:09:58;;;;;;;3.03;1.65;;;;;;;;;;5018500;28;20428;-77
2023/03/12 01:12:24;;;;;;;4.10;1.42;;;;;;;;;;5014041;28;20429;-82
2023/03/12 01:14:50;;;;;;;2.70;1.63;;;;;;;;;;5013861;28;20491;-81
2023/03/12 01:17:16;;;;;;;2.65;1.52;;;;;;;;;;5023124;28;20992;-81
2023/03/12 01:19:42;;;;;;;3.55;1.40;;;;;;;;;;5020093;28;20417;-79
2023/03/12 01:22:08;;;;;;;4.75;1.83;;;;;;;;;;5017974;28;20414;-81
2023/03/12 01:24:34;;;;;;;3.78;1.55;;;;;;;;;;5019081;28;20419;-81
2023/03/12 01:27:00;;;;;;;4.53;1.73;;;;;;;;;;5015656;28;20449;-79
2023/03/12 01:29:26;;;;;;;4.28;1.65;;;;;;;;;;5016385;28;20491;-76
2023/03/12 01:31:52;;;;;;;6.15;1.90;;;;;;;;;;5016221;28;20413;-79
2023/03/12 01:34:18;;;;;;;3.60;1.73;;;;;;;;;;5016820;28;20985;-82
2023/03/12 01:36:46;;;;;;;5.10;1.90;;;;;;;;;;5018183;28;20466;-80
2023/03/12 01:39:12;;;;;;;4.53;1.92;;;;;;;;;;5015059;28;20477;-75
2023/03/12 01:41:38;;;;;;;6.30;1.70;;;;;;;;;;5014586;28;20418;-80
2023/03/12 01:44:05;;;;;;;3.95;1.63;;;;;;;;;;5016807;28;20416;-77
2023/03/12 01:46:37;;;;;;;4.05;1.80;;;;;;;;;;5016790;28;20941;-82
2023/03/12 01:49:03;;;;;;;7.27;2.40;;;;;;;;;;5021880;28;20484;-78
2023/03/12 01:51:31;;;;;;;2.90;1.90;;;;;;;;;;5017384;28;20408;-79
2023/03/12 01:53:59;;;;;;;4.10;1.65;;;;;;;;;;5018919;28;20422;-76
2023/03/12 01:56:29;;;;;;;3.67;2.10;;;-1.90;99.90;;;;;;5021630;28;20444;-78
2023/03/12 01:58:57;;;;;;;7.88;2.15;;;;;;;;;;5015167;28;20422;-79
2023/03/12 02:01:23;;;;;;;4.68;1.85;;;;;;;;;;5008341;28;20418;-77
2023/03/12 02:03:51;;;;;;;3.70;1.63;;;;;;;;;;5016965;28;20903;-81
2023/03/12 02:06:19;;;;;;;4.13;1.85;;;;;;;;;;5021839;28;20476;-81
2023/03/12 02:08:46;;;;;;;4.22;2.05;;;;;;;;;;5018631;28;20439;-77
2023/03/12 02:11:13;;;;;;;5.40;2.22;;;;;;;;;;5017297;28;20407;-81
2023/03/12 02:13:39;;;;;;;3.70;2.20;;;;;;;;;;5012445;28;20411;-77
2023/03/12 02:16:05;;;;;;;5.97;2.17;;;;;;;;;;5020340;28;20977;-77
2023/03/12 02:18:33;;;;;;;4.45;1.85;;;;;;;;;;5020019;28;20418;-76
2023/03/12 02:21:18;;;;;;;5.43;2.45;;;;;;;;;;5018333;28;20409;-78
2023/03/12 02:23:55;;;;;;;4.32;2.35;;;;;;;;;;5020559;28;20415;-76
2023/03/12 02:26:21;;;;;;;3.58;1.98;;;;;;;;;;5015548;28;20432;-82
2023/03/12 02:28:47;;;;;;;3.80;2.17;;;;;;;;;;5006999;28;20426;-78
2023/03/12 02:31:15;;;;;;;3.17;2.10;;;;;;;;;;5013268;28;20491;-81
2023/03/12 02:33:41;;;;;;;5.68;2.80;;;;;;;;;;5018014;28;20421;-79
2023/03/12 02:36:08;;;;;;;5.40;2.13;;;;;;;;;;5019675;28;20429;-81
2023/03/12 02:38:50;;;;;;;3.63;1.92;;;;;;;;;;5018647;28;20415;-77
2023/03/12 02:41:23;;;;;;;4.70;2.00;;;;;;;;;;5014199;28;20420;-82
2023/03/12 02:43:54;;;;;;;4.33;2.10;;;;;;;;;;5017543;28;20491;-80
2023/03/12 02:46:20;;;;;;;4.68;2.25;;;;;;;;;;5016849;28;20935;-77
2023/03/12 02:48:46;;;;;;;3.50;1.83;;;;;;;;;;5016746;28;20431;-82
2023/03/12 02:51:12;;;;;;;5.27;1.90;;;;;;;;;;5016185;28;20415;-78
2023/03/12 02:53:39;;;;;;;5.30;1.73;;;;;;;;;;5028880;28;20430;-79
2023/03/12 02:56:05;;;;;;;2.78;1.58;;;;;;;;;;5044851;28;20505;-81
2023/03/12 02:58:31;;;;;;;4.03;1.88;;;;;;;;;;5030287;28;20405;-79
2023/03/12 03:00:57;;;;;;;4.75;2.30;;;;;;;;;;5017918;28;20907;-80
2023/03/12 03:03:23;;;;;;;5.40;2.60;;;;;;;;;;5015625;28;20411;-81
2023/03/12 03:05:49;;;;;;;3.72;2.30;;;;;;;;;;5019186;28;20399;-77
2023/03/12 03:08:15;;;;;;;5.28;2.30;;;;;;;;;;5017236;28;20906;-78
2023/03/12 03:10:41;;;;;;;4.03;1.88;;;;;;;;;;5018747;28;20414;-78
2023/03/12 03:13:07;;;;;;;6.00;2.10;;;;;;;;;;5011115;28;20409;-79
2023/03/12 03:15:33;;;;;;;6.90;2.67;;;;;;;;;;5016920;28;20403;-82
2023/03/12 03:18:02;;;;;;;7.55;2.28;;;;;;;;;;5019548;28;20411;-78
2023/03/12 03:20:28;;;;;;;7.63;2.33;;;;;;;;;;5009536;28;20886;-77
2023/03/12 03:22:54;;;;;;;6.80;2.25;;;;;;;;;;5013347;28;20428;-75
2023/03/12 03:25:22;;;;;;;5.50;2.17;;;;;;;;;;5010477;28;20773;-83
2023/03/12 03:27:48;;;;;;;5.03;1.80;;;;;;;;;;5006891;28;20514;-79
2023/03/12 03:30:15;;;;;;;7.15;2.63;;;;;;;;;;5010002;28;20972;-76
2023/03/12 03:32:41;;;;;;;6.03;2.58;;;;;;;;;;5017259;28;20435;-79
2023/03/12 03:35:07;;;;;;;4.93;1.80;;;;;;;;;;5009250;28;20754;-81
2023/03/12 03:37:33;;;;;;;4.13;2.20;;;;;;;;;;5016954;28;20418;-80
2023/03/12 03:39:59;;;;;;;3.50;2.10;;;;;;;;;;5013931;28;20391;-78
2023/03/12 03:42:25;;;;;;;4.28;2.38;;;;;;;;;;5022183;28;20403;-79
2023/03/12 03:44:51;;;;;;;5.55;2.45;;;;;;;;;;5013418;28;20407;-77
2023/03/12 03:47:17;;;;;;;5.35;2.55;;;;;;;;;;5016577;28;20409;-82
2023/03/12 03:49:44;;;;;;;7.05;2.10;;;;;;;;;;5019351;28;20404;-80
2023/03/12 03:52:10;;;;;;;4.95;2.05;;;;;;;;;;5017836;28;20902;-79
2023/03/12 03:54:36;;;;;;;5.50;1.73;;;;;;;;;;5015948;28;20848;-83
2023/03/12 03:57:02;;;;;;;4.95;2.70;;;;;;;;;;5019333;28;20410;-80
2023/03/12 03:59:27;;;;;;;5.07;2.20;;;;;;;;;;5020512;28;20403;-80
2023/03/12 04:01:54;;;;;;;4.63;2.10;;;;;;;;;;5020767;28;20890;-79
2023/03/12 04:04:20;;;;;;;8.13;3.08;;;;;;;;;;5021654;28;20476;-81
2023/03/12 04:06:46;;;;;;;4.43;2.60;;;;;;;;;;5015071;28;20416;-78
2023/03/12 04:09:12;;;;;;;5.38;2.35;;;;;;;;;;5017034;28;20441;-79
2023/03/12 04:11:38;;;;;;;3.78;2.13;;;;;;;;;;5020273;28;20493;-78
2023/03/12 04:14:04;;;;;;;5.57;2.55;;;-0.80;99.90;;;;;;5017317;28;20434;-78
2023/03/12 04:16:29;;;;;;;4.10;2.45;;;-1.10;99.90;;;;;;5018388;28;20410;-78
2023/03/12 04:18:55;;;;;;;3.93;2.50;;;;;;;;;;5013944;28;20417;-82
2023/03/12 04:21:21;;;;;;;5.68;2.28;;;;;;;;;;5011147;28;20540;-83
2023/03/12 04:23:47;;;;;;;4.10;2.25;;;;;;;;;;5022287;28;20428;-78
2023/03/12 04:26:13;;;;;;;5.47;2.40;;;;;;;;;;5020033;28;20406;-83
2023/03/12 04:28:39;;;;;;;6.00;2.57;;;;;;;;;;5016328;28;20441;-82
2023/03/12 04:31:07;;;;;;;3.90;2.30;;;;;;;;;;5018935;28;20437;-77
2023/03/12 04:33:35;;;;;;;4.22;2.40;;;;;;;;;;5017801;28;22384;-80
2023/03/12 04:36:01;;;;;;;4.30;2.17;;;;;;;;;;5020821;28;20400;-83
2023/03/12 04:38:27;;;;;;;6.00;2.42;;;;;;;;;;5011416;28;20409;-83
2023/03/12 04:40:57;;;;;;;5.00;2.70;;;;;;;;;;5017031;28;20406;-80
2023/03/12 04:43:23;;;;;;;4.95;2.85;;;;;;;;;;5021680;28;20404;-80
2023/03/12 04:45:49;;;;;;;6.28;2.90;;;;;;;;;;5016630;28;21966;-80
2023/03/12 04:48:15;;;;;;;4.03;2.33;;;;;;;;;;5019627;28;20520;-81
2023/03/12 04:50:42;;;;;;;5.30;2.45;;;;;;;;;;5013458;28;20445;-81
2023/03/12 04:53:08;;;;;;;4.47;2.53;;;;;;;;;;5018952;28;20418;-82
2023/03/12 04:55:34;;;;;;;6.75;2.50;;;;;;;;;;5023767;28;21663;-81
2023/03/12 04:58:00;;;;;;;3.90;2.20;;;;;;;;;;5017921;28;20812;-78
2023/03/12 05:00:26;;;;;;;6.13;2.73;;;;;;;;;;5021094;28;20469;-83
2023/03/12 05:02:52;;;;;;;6.53;2.73;;;;;;;;;;5021663;28;20459;-81
2023/03/12 05:05:18;;;;;;;7.13;2.90;;;;;;;;;;5021064;28;20496;-81
2023/03/12 05:07:44;;;;;;;6.07;2.72;;;;;;;;;;5023529;28;20454;-83
2023/03/12 05:10:10;;;;;;;8.67;3.00;;;;;;;;;;5021098;28;20423;-80
2023/03/12 05:12:36;;;;;;;11.65;3.03;;;;;;;;;;5018781;28;20409;-78
2023/03/12 05:15:02;;;;;;;5.47;2.78;;;;;;;;;;5018082;28;20409;-81
2023/03/12 05:17:28;;;;;;;4.60;2.65;;;;;;;;;;5027319;28;20410;-79
2023/03/12 05:19:54;;;;;;;7.47;2.47;;;;;;;;;;5016902;28;20409;-77
2023/03/12 05:22:20;;;;;;;5.32;2.95;;;;;;;;;;5018188;28;20471;-78
2023/03/12 05:24:46;;;;;;;4.68;2.67;;;;;;;;;;5021387;28;20982;-81
2023/03/12 05:27:12;;;;;;;6.22;2.88;;;;;;;;;;5024221;28;20817;-79
2023/03/12 05:29:38;;;;;;;6.18;2.95;;;;;;;;;;5019161;28;20419;-79
2023/03/12 05:32:06;;;;;;;7.55;3.78;;;;;;;;;;5019769;28;20489;-83
2023/03/12 05:34:32;;;;;;;6.45;2.67;;;;;;;;;;5022570;28;20407;-77
2023/03/12 05:36:58;;;;;;;6.28;3.05;;;;;;;;;;5010791;28;20410;-78
2023/03/12 05:39:25;;;;;;;3.95;2.63;;;-0.10;99.90;;;;;;5020882;28;20438;-79
2023/03/12 05:41:55;;;;;;;6.97;3.00;;;;;;;;;;5022732;28;20849;-80
2023/03/12 05:44:21;;;;;;;6.20;2.47;;;;;;;;;;5017722;28;20488;-80
2023/03/12 05:46:47;;;;;;;8.73;3.17;;;;;;;;;;5020250;28;20422;-80
2023/03/12 05:49:13;;;;;;;8.53;3.23;;;;;;;;;;5016656;28;20477;-82
2023/03/12 05:51:39;;;;;;;4.63;2.47;;;;;;;;;;5019668;28;20490;-79
2023/03/12 05:54:05;;;;;;;4.37;3.10;;;;;;;;;;5019374;28;20417;-83
2023/03/12 05:56:31;;;;;;;8.03;2.90;;;;;;;;;;5012708;28;20405;-78
2023/03/12 05:58:57;;;;;;;6.57;2.87;;;;;;;;;;5022600;28;20419;-83
2023/03/12 06:01:26;;;;;;;4.93;3.10;;;;;;;;;;5026944;28;20403;-81
2023/03/12 06:03:52;;;;;;;6.57;3.20;;;;;;;;;;5022876;28;20654;-78
2023/03/12 06:06:18;;;;;;;6.30;3.17;;;;;;;;;;5023698;28;20505;-82
2023/03/12 06:08:44;;;;;;;6.35;3.08;;;;;;;;;;5020197;28;20438;-80
2023/03/12 06:11:10;;;;;;;4.80;3.30;;;;;;;;;;5018688;28;20474;-78
2023/03/12 06:13:37;;;;;;;4.95;2.53;;;;;;;;;;5013643;28;20436;-78
2023/03/12 06:16:11;;;;;;;8.33;2.93;;;;;;;;;;5017661;28;20503;-80
2023/03/12 06:18:37;;;;;;;5.60;3.13;;;;;;;;;;5018639;28;20408;-77
2023/03/12 06:21:22;;;;;;;5.18;2.40;;;;;;;;;;5015315;28;20456;-83
2023/03/12 06:23:49;;;;;;;6.53;3.10;;;;;;;;;;5020878;28;20503;-78
2023/03/12 06:26:15;;;;;;;7.05;3.03;;;;;;;;;;5008195;28;20422;-81
2023/03/12 06:28:42;;;;;;;6.15;3.35;;;;;;;;;;5014079;28;20431;-78
2023/03/12 06:31:08;;;;;;;8.02;3.17;;;;;;;;;;5020974;28;20406;-78
2023/03/12 06:33:34;;;;;;;7.18;3.38;;;;;;;;;;5017139;28;20485;-77
2023/03/12 06:36:01;;;;;;;7.20;3.00;;;;;;;;;;5020689;28;20519;-78
2023/03/12 06:38:27;;;;;;;5.72;2.78;;;;;;;;;;5020222;28;20409;-77
2023/03/12 06:40:55;;;;;;;5.32;2.88;;;;;;;;;;5015595;28;20473;-83
2023/03/12 06:43:21;;;;;;;6.30;2.53;;;;;;;;;;5015173;28;21278;-78
2023/03/12 06:45:46;;;;;;;7.60;2.55;;;;;;;;;;5022982;28;20493;-82
2023/03/12 06:48:12;;;;;;;4.18;2.00;;;;;;;;;;5015410;28;20443;-77
2023/03/12 06:50:38;;;;;;;11.18;2.95;;;;;;;;;;5024424;28;20759;-81
2023/03/12 06:53:04;;;;;;;6.47;3.17;;;;;;;;;;5019788;28;20815;-82
2023/03/12 06:55:30;;;;;;;5.50;2.97;;;;;;;;;;5023539;28;20913;-79
2023/03/12 06:57:56;;;;;;;6.83;2.37;;;;;;;;;;5012402;28;21019;-79
2023/03/12 07:00:22;;;;;;;7.03;2.92;;;;;;;;;;5019398;28;20931;-79
2023/03/12 07:02:48;;;;;;;10.73;4.78;;;;;;;;;;5018109;28;20419;-78
2023/03/12 07:05:14;;;;;;;30.60;13.57;;;;;;;;;;5021768;28;20932;-77
2023/03/12 07:07:40;;;;;;;25.13;10.75;;;;;;;;;;5021093;28;20918;-79
2023/03/12 07:10:06;;;;;;;15.13;7.68;;;;;;;;;;5019160;28;20488;-81
2023/03/12 07:12:32;;;;;;;10.45;4.82;;;;;;;;;;5016834;28;20765;-80
2023/03/12 07:14:58;;;;;;;9.77;3.33;;;;;;;;;;5032171;28;20397;-78
2023/03/12 07:17:25;;;;;;;7.47;2.75;;;;;;;;;;5034618;28;21316;-76
2023/03/12 07:19:51;;;;;;;6.25;3.13;;;;;;;;;;5030472;28;20837;-83
2023/03/12 07:22:17;;;;;;;5.82;2.22;;;;;;;;;;5015187;28;20059;-82
2023/03/12 07:24:43;;;;;;;4.40;2.47;;;;;;;;;;5024792;28;20038;-79
2023/03/12 07:27:09;;;;;;;3.30;2.27;;;;;;;;;;5023490;28;20041;-80
2023/03/12 07:29:35;;;;;;;8.35;2.35;;;;;;;;;;5026880;28;20033;-79
2023/03/12 07:32:01;;;;;;;7.32;1.73;;;;;;;;;;5023420;28;20029;-79
2023/03/12 07:34:27;;;;;;;2.28;1.60;;;;;;;;;;5014840;28;20146;-78
2023/03/12 07:36:53;;;;;;;6.15;1.63;;;;;;;;;;5017549;28;20021;-79
2023/03/12 07:39:20;;;;;;;3.90;1.50;;;;;;;;;;5021058;28;20405;-80
2023/03/12 07:41:45;;;;;;;4.53;2.03;;;;;;;;;;5018449;28;20039;-77
2023/03/12 07:44:11;;;;;;;3.95;2.33;;;;;;;;;;5019684;28;20120;-81
2023/03/12 07:46:37;;;;;;;5.55;2.78;;;;;;;;;;5016265;28;20034;-78
2023/03/12 07:49:03;;;;;;;7.55;2.38;;;;;;;;;;5015434;28;20044;-79
2023/03/12 07:51:29;;;;;;;12.45;5.72;;;;;;;;;;5013238;28;20037;-81
2023/03/12 07:53:56;;;;;;;12.07;5.45;;;;;;;;;;5023944;28;20167;-77
2023/03/12 07:56:22;;;;;;;21.50;6.88;;;;;;;;;;5018614;28;20437;-79
2023/03/12 07:58:48;;;;;;;7.55;4.70;;;;;;;;;;5014300;28;20036;-80
2023/03/12 08:01:14;;;;;;;7.22;3.60;;;;;;;;;;5018146;28;20362;-79
2023/03/12 08:03:40;;;;;;;6.53;2.53;;;;;;;;;;5022109;28;20036;-78
2023/03/12 08:06:06;;;;;;;4.43;1.52;;;;;;;;;;5018942;28;20026;-80
2023/03/12 08:08:32;;;;;;;4.07;2.47;;;;;;;;;;5023544;28;20037;-80
2023/03/12 08:10:59;;;;;;;2.17;1.35;;;;;;;;;;5014280;28;20032;-81
2023/03/12 08:13:25;;;;;;;2.45;1.27;;;;;;;;;;5015181;28;20036;-80
2023/03/12 08:15:52;;;;;;;3.05;1.40;;;;;;;;;;5021578;28;20389;-80
2023/03/12 08:18:18;;;;;;;2.83;1.48;;;;;;;;;;5025871;28;20033;-77
2023/03/12 08:20:44;;;;;;;2.88;1.25;;;;;;;;;;5013309;28;20026;-80
2023/03/12 08:23:10;;;;;;;4.60;1.40;;;;;;;;;;5021227;28;20030;-81
2023/03/12 08:25:37;;;;;;;1.95;1.30;;;;;;;;;;5007934;28;20025;-80
2023/03/12 08:28:03;;;;;;;5.60;2.75;;;;;;;;;;5018126;28;20058;-82
2023/03/12 08:30:30;;;;;;;2.85;1.42;;;;;;;;;;5012270;28;20139;-81
2023/03/12 08:32:56;;;;;;;3.88;1.60;;;;;;;;;;5024411;28;20121;-80
2023/03/12 08:35:22;;;;;;;4.55;1.52;;;;;;;;;;5017898;28;20029;-80
2023/03/12 08:37:48;;;;;;;6.20;1.48;;;;;;;;;;5020443;28;20042;-78
2023/03/12 08:40:14;;;;;;;4.07;2.10;;;;;;;;;;5023375;28;20037;-79
2023/03/12 08:42:41;;;;;;;3.20;1.58;;;;;;;;;;5012240;28;20089;-82
2023/03/12 08:45:08;;;;;;;7.35;1.88;;;;;;;;;;5024528;28;20060;-80
2023/03/12 08:47:34;;;;;;;8.10;2.00;;;;;;;;;;5027257;28;20095;-79
2023/03/12 08:49:59;;;;;;;3.03;1.48;;;;;;;;;;5016482;28;20309;-78
2023/03/12 08:52:25;;;;;;;3.88;1.58;;;;;;;;;;5016022;28;20045;-77
2023/03/12 08:54:52;;;;;;;3.30;1.65;;;;;;;;;;5019118;28;20029;-78
2023/03/12 08:57:18;;;;;;;6.45;1.92;;;;;;;;;;5024333;28;20501;-79
2023/03/12 08:59:44;;;;;;;2.05;1.13;;;;;;;;;;5029264;28;20021;-81
2023/03/12 09:02:13;;;;;;;4.13;1.80;;;;;;;;;;5033503;28;20064;-80
2023/03/12 09:04:39;;;;;;;2.78;2.05;;;;;;;;;;5036936;28;20061;-78
2023/03/12 09:07:05;;;;;;;5.68;1.45;;;;;;;;;;5020947;28;20034;-82
2023/03/12 09:09:31;;;;;;;4.07;1.63;;;;;;;;;;5007996;28;20045;-82
2023/03/12 09:11:57;;;;;;;4.53;1.73;;;;;;;;;;5019009;28;20044;-77
2023/03/12 09:14:23;;;;;;;3.67;1.67;;;;;;;;;;5023285;28;20038;-79
2023/03/12 09:16:49;;;;;;;3.60;1.20;;;;;;;;;;5013123;28;20911;-79
2023/03/12 09:19:15;;;;;;;3.15;1.70;;;;;;;;;;5017257;28;20104;-81
2023/03/12 09:21:41;;;;;;;4.30;2.38;;;;;;;;;;5021772;28;20026;-81
2023/03/12 09:24:07;;;;;;;6.68;2.22;;;;;;;;;;5019259;28;20531;-81
2023/03/12 09:26:33;;;;;;;10.55;3.35;;;;;;;;;;5014915;28;20021;-78
2023/03/12 09:28:59;;;;;;;5.55;2.55;;;;;;;;;;5011385;28;20037;-77
2023/03/12 09:31:25;;;;;;;3.53;1.52;;;;;;;;;;5019886;28;20028;-77
2023/03/12 09:33:51;;;;;;;6.70;2.42;;;;;;;;;;5019827;28;20033;-81
2023/03/12 09:36:18;;;;;;;2.45;1.77;;;;;;;;;;5014915;28;20393;-79
2023/03/12 09:38:44;;;;;;;3.20;1.85;;;;;;;;;;5012456;28;20032;-78
2023/03/12 09:41:21;;;;;;;2.30;1.20;;;;;;;;;;5012491;28;20042;-80
2023/03/12 09:44:07;;;;;;;2.42;1.42;;;;;;;;;;5021383;28;20017;-78
2023/03/12 09:46:53;;;;;;;3.83;1.73;;;;;;;;;;5026148;28;20030;-78
2023/03/12 09:49:32;;;;;;;8.40;2.53;;;;;;;;;;5027177;28;20048;-76
2023/03/12 09:52:00;;;;;;;4.55;1.70;;;;;;;;;;5023054;28;20404;-79
2023/03/12 09:54:46;;;;;;;4.82;1.85;;;;;;;;;;5026264;28;20036;-78
2023/03/12 09:57:15;;;;;;;6.55;1.70;;;;;;;;;;5024667;28;20052;-79
2023/03/12 09:59:41;;;;;;;5.57;1.92;;;;;;;;;;5020119;28;20034;-81
2023/03/12 10:02:20;;;;;;;4.72;1.85;;;;;;;;;;5019192;28;20799;-77
2023/03/12 10:05:02;;;;;;;2.80;1.25;;;;;;;;;;5025147;28;20091;-80
2023/03/12 10:07:37;;;;;;;6.22;1.63;;;;;;;;;;5017404;28;20049;-78
2023/03/12 10:10:03;;;;;;;3.97;1.88;;;;;;;;;;5018061;28;20033;-76
2023/03/12 10:12:44;;;;;;;4.53;1.88;;;;;;;;;;5022154;28;20108;-76
2023/03/12 10:15:31;;;;;;;5.65;1.17;;;;;;;;;;5021723;28;20133;-78
2023/03/12 10:18:00;;;;;;;5.40;1.63;;;;;;;;;;5014207;28;20057;-79
2023/03/12 10:20:46;;;;;;;5.60;1.67;;;;;;;;;;5025873;28;20055;-78
2023/03/12 10:23:17;;;;;;;4.38;1.48;;;;;;;;;;5020072;28;20025;-79
2023/03/12 10:25:56;;;;;;;3.83;1.73;;;7.90;99.90;;;;;;5022572;28;20017;-77
2023/03/12 10:28:29;;;;;;;7.78;1.55;;;8.00;99.90;;;;;;5027103;28;20044;-80
2023/03/12 10:31:00;;;;;;;6.22;1.70;;;7.90;99.90;;;;;;5023946;28;20026;-79
2023/03/12 10:33:34;;;;;;;3.28;1.38;;;;;;;;;;5028109;28;21696;-77
2023/03/12 10:36:00;;;;;;;3.80;1.48;;;;;;;;;;5017871;28;20025;-79
2023/03/12 10:38:29;;;;;;;1.83;1.05;;;;;;;;;;5014686;28;20034;-76
2023/03/12 10:40:55;;;;;;;3.33;1.77;;;;;;;;;;4999109;28;20032;-80
2023/03/12 10:43:21;;;;;;;2.67;1.30;;;;;;;;;;5005665;28;20095;-78
2023/03/12 10:46:00;;;;;;;4.22;1.88;;;;;;;;;;5005779;28;20026;-78
2023/03/12 10:48:26;;;;;;;3.30;1.70;;;;;;;;;;5014979;28;20102;-79
2023/03/12 10:51:07;;;;;;;4.00;1.55;;;;;;;;;;5017017;28;20108;-77
2023/03/12 10:53:34;;;;;;;3.00;1.30;;;;;;;;;;5016979;28;20448;-82
2023/03/12 10:56:05;;;;;;;3.35;1.80;;;;;;;;;;5021639;28;20045;-78
2023/03/12 10:58:32;;;;;;;3.35;1.70;;;;;;;;;;5012862;28;20594;-83
2023/03/12 11:01:00;;;;;;;2.05;1.27;;;;;;;;;;5007695;28;20111;-78
2023/03/12 11:03:27;;;;;;;5.38;1.65;;;;;;;;;;5006082;28;20041;-78
2023/03/12 11:05:54;;;;;;;5.90;2.03;;;;;;;;;;5013461;28;20117;-79
2023/03/12 11:08:20;;;;;;;2.55;1.42;;;;;;;;;;5014779;28;20049;-77
2023/03/12 11:10:46;;;;;;;3.38;2.03;;;;;;;;;;5015820;28;20414;-80
2023/03/12 11:13:22;;;;;;;2.30;1.52;;;;;;;;;;5021627;28;20057;-79
2023/03/12 11:15:50;;;;;;;4.28;1.83;;;;;;;;;;5022754;28;20030;-80
2023/03/12 11:18:19;;;;;;;3.00;2.17;;;;;;;;;;5007908;28;20021;-78
2023/03/12 11:20:45;;;;;;;2.92;1.77;;;;;;;;;;5007527;28;20689;-79
2023/03/12 11:23:15;;;;;;;3.65;1.92;;;;;;;;;;5012031;28;20040;-81
2023/03/12 11:25:42;;;;;;;4.05;2.08;;;;;;;;;;5019801;28;20038;-80
2023/03/12 11:28:12;;;;;;;4.10;1.63;;;;;;;;;;5017406;28;20049;-79
2023/03/12 11:30:39;;;;;;;9.57;2.25;;;;;;;;;;5014854;28;20033;-80
2023/03/12 11:33:06;;;;;;;5.50;2.72;;;;;;;;;;5014134;28;20691;-79
2023/03/12 11:35:42;;;;;;;7.55;2.00;;;;;;;;;;5013142;28;20535;-81
2023/03/12 11:38:15;;;;;;;8.38;2.42;;;;;;;;;;5023313;28;20038;-77
2023/03/12 11:40:52;;;;;;;2.63;1.63;;;;;;;;;;5023568;28;20018;-78
2023/03/12 11:43:37;;;;;;;3.28;2.05;;;;;;;;;;5023611;28;20069;-77
2023/03/12 11:46:03;;;;;;;3.88;1.90;;;;;;;;;;5011046;28;20034;-79
2023/03/12 11:48:29;;;;;;;4.78;1.55;;;;;;;;;;5017646;28;20125;-79
2023/03/12 11:51:13;;;;;;;3.00;1.50;;;;;;;;;;5015129;28;20159;-81
2023/03/12 11:54:08;;;;;;;5.53;1.55;;;;;;;;;;5019691;28;20590;-81
2023/03/12 11:56:37;;;;;;;4.78;2.15;;;;;;;;;;4980413;28;20132;-80
2023/03/12 11:59:27;;;;;;;7.32;1.77;;;7.40;99.90;;;;;;5012836;28;20022;-80
2023/03/12 12:01:59;;;;;;;3.40;2.38;;;;;;;;;;5016833;28;20473;-78
2023/03/12 12:04:44;;;;;;;2.88;1.63;;;;;;;;;;5005801;28;20536;-79
2023/03/12 12:07:22;;;;;;;3.22;1.80;;;;;;;;;;5013900;28;20061;-80
2023/03/12 12:10:07;;;;;;;2.65;1.42;;;;;;;;;;5015900;28;20511;-79
2023/03/12 12:12:33;;;;;;;3.60;1.73;;;;;;;;;;5018957;28;20472;-77
2023/03/12 12:15:02;;;;;;;4.88;1.75;;;;;;;;;;5022122;28;20099;-77
2023/03/12 12:17:49;;;;;;;8.27;2.42;;;;;;;;;;5026894;28;20385;-76
2023/03/12 12:20:27;;;;;;;3.97;2.28;;;;;;;;;;5021854;28;20026;-80
2023/03/12 12:23:02;;;;;;;6.50;2.53;;;;;;;;;;5022074;28;20030;-81
2023/03/12 12:25:41;;;;;;;6.13;2.60;;;;;;;;;;5016699;28;20109;-81
2023/03/12 12:28:07;;;;;;;5.20;2.53;;;;;;;;;;5013307;28;20152;-82
2023/03/12 12:30:40;;;;;;;4.50;2.97;;;;;;;;;;5020761;28;20123;-82
2023/03/12 12:33:09;;;;;;;4.30;2.38;;;;;;;;;;5025519;28;20036;-79
2023/03/12 12:35:37;;;;;;;4.70;2.50;;;7.80;99.90;;;;;;5016713;28;20026;-80
2023/03/12 12:38:07;;;;;;;4.47;2.30;;;;;;;;;;5019972;28;20025;-79
2023/03/12 12:40:38;;;;;;;3.85;2.33;;;;;;;;;;5008779;28;20433;-79
2023/03/12 12:43:23;;;;;;;5.45;2.25;;;;;;;;;;5017273;28;20055;-80
2023/03/12 12:45:51;;;;;;;5.70;3.00;;;;;;;;;;5019712;28;20061;-81
2023/03/12 12:48:18;;;;;;;7.25;3.00;;;;;;;;;;5022104;28;20045;-79
2023/03/12 12:50:46;;;;;;;6.22;3.70;;;7.80;99.90;;;;;;5012853;28;20014;-80
2023/03/12 12:53:20;;;;;;;9.52;3.70;;;;;;;;;;5014503;28;20283;-79
2023/03/12 12:56:00;;;;;;;6.47;3.70;;;7.80;99.90;;;;;;5015995;28;20469;-79
2023/03/12 12:58:33;;;;;;;7.50;3.53;;;;;;;;;;5022067;28;20041;-81
2023/03/12 13:00:59;;;;;;;;;;;;;;;;;;5022979;28;20059;-76
2023/03/12 13:03:27;;;;;;;6.20;3.42;;;;;;;;;;5017512;28;19933;-78
2023/03/12 13:06:01;;;;;;;8.90;3.72;;;;;;;;;;5022979;28;20033;-81
2023/03/12 13:08:33;;;;;;;6.10;3.25;;;;;;;;;;5018412;28;20507;-79
2023/03/12 13:11:03;;;;;;;7.35;4.05;;;;;;;;;;5016310;28;20111;-82
2023/03/12 13:13:29;;;;;;;6.82;3.80;;;;;;;;;;5019261;28;20974;-81
2023/03/12 13:16:13;;;;;;;7.25;2.80;;;;;;;;;;5020690;28;20029;-78
2023/03/12 13:18:39;;;;;;;7.28;4.10;;;;;;;;;;5023148;28;20060;-79
2023/03/12 13:21:11;;;;;;;5.57;3.30;;;;;;;;;;5012408;28;20176;-78
2023/03/12 13:24:08;;;;;;;8.40;3.25;;;8.30;99.90;;;;;;5022790;28;20030;-81
2023/03/12 13:26:39;;;;;;;7.60;3.25;;;;;;;;;;5016706;28;20279;-81
2023/03/12 13:29:24;;;;;;;8.07;3.70;;;;;;;;;;5019161;28;20049;-76
2023/03/12 13:31:51;;;;;;;8.70;4.82;;;;;;;;;;5012764;28;20480;-80
2023/03/12 13:34:16;;;;;;;7.32;3.80;;;;;;;;;;5012590;28;20025;-77
2023/03/12 13:36:47;;;;;;;8.73;4.18;;;;;;;;;;5019615;28;20071;-80
2023/03/12 13:39:16;;;;;;;10.60;3.70;;;;;;;;;;5015602;28;20068;-80
2023/03/12 13:41:53;;;;;;;9.30;3.53;;;9.50;99.90;;;;;;5018687;28;20025;-76
2023/03/12 13:44:22;;;;;;;7.10;3.85;;;9.90;99.90;;;;;;5019075;28;20031;-79
2023/03/12 13:46:48;;;;;;;12.02;4.13;;;;;;;;;;5017642;28;20037;-79
2023/03/12 13:49:15;;;;;;;8.90;2.60;;;;;;;;;;5016724;28;20045;-78
2023/03/12 13:51:46;;;;;;;5.43;3.03;;;;;;;;;;5020602;28;20022;-78
2023/03/12 13:54:16;;;;;;;5.80;3.35;;;;;;;;;;5017075;28;20021;-78
2023/03/12 13:56:46;;;;;;;7.07;2.97;;;;;;;;;;5022286;28;20033;-83
2023/03/12 13:59:16;;;;;;;4.03;2.53;;;;;;;;;;5020585;28;20041;-81
2023/03/12 14:01:46;;;;;;;5.07;2.92;;;;;;;;;;5014391;28;20040;-80
2023/03/12 14:04:21;;;;;;;7.82;3.13;;;;;;;;;;5019442;28;20024;-76
2023/03/12 14:07:00;;;;;;;5.95;3.40;;;;;;;;;;5020126;28;20060;-79
2023/03/12 14:09:34;;;;;;;6.53;3.45;;;11.00;99.90;;;;;;5028039;28;20046;-80
2023/03/12 14:12:03;;;;;;;4.53;2.65;;;;;;;;;;5012941;28;20034;-83
2023/03/12 14:14:40;;;;;;;12.73;4.40;;;;;;;;;;5022794;28;20036;-80
2023/03/12 14:17:12;;;;;;;5.57;3.35;;;;;;;;;;5024284;28;20029;-76
2023/03/12 14:19:38;;;;;;;6.25;2.92;;;;;;;;;;5026523;28;20396;-80
2023/03/12 14:22:06;;;;;;;7.88;3.85;;;;;;;;;;5017970;28;20421;-80
2023/03/12 14:24:37;;;;;;;8.05;4.45;;;;;;;;;;5010693;28;20037;-81
2023/03/12 14:27:05;;;;;;;5.00;3.25;;;;;;;;;;5010601;28;20049;-79
2023/03/12 14:29:35;;;;;;;5.10;3.53;;;;;;;;;;5013356;28;20037;-80
2023/03/12 14:32:04;;;;;;;10.18;3.25;;;10.70;99.90;;;;;;5008588;28;20044;-79
2023/03/12 14:34:34;;;;;;;6.50;2.60;;;;;;;;;;5016831;28;20029;-79
2023/03/12 14:37:04;;;;;;;5.47;3.65;;;;;;;;;;5012130;28;20040;-79
2023/03/12 14:39:36;;;;;;;10.43;4.72;;;;;;;;;;5010511;28;20099;-80
2023/03/12 14:42:04;;;;;;;14.32;3.72;;;10.60;99.90;;;;;;5012623;28;20025;-79
2023/03/12 14:44:30;;;;;;;8.85;3.15;;;;;;;;;;5011771;28;20022;-79